MV Melite — V7TM5 — position and weather

sailwx.info

Track history (hours):
 
Tides and Currents Weather Stations Pressure Air Temp Water Temp Dewpoint Dewpoint Depression Visibility Wind Speed Wind Dir Waves Ship Positions

MV Melite

Last reported at 2017-May-21 18:27 UTC. Time now 2017-Jun-28 22:48 UTC.
Position N 27°41' W 016°27'.
Warning: this ship's position is 38 days out of date.

Length 225 m; draft 13.4 m.

Type: Cargo ship. MMSI: 538003832.

Date/timePositionNaut miles runAvg speedWind from/ knotsBaromVisibWave heightAir tempDewpointWater temp
2017-May-21 18:27N 27°41' W 016°27'811.4
2017-May-21 17:45N 27°49' W 016°24'711.6
2017-May-21 17:07N 27°56' W 016°21'611.6
2017-May-21 16:38N 28°01' W 016°19'1011.4
2017-May-21 15:45N 28°09' W 016°12'311.5
2017-May-21 15:30N 28°11' W 016°10'711.5
2017-May-21 14:55N 28°16' W 016°05'711.4
2017-May-21 14:21N 28°21' W 016°00'911.3
2017-May-21 13:30N 28°28' W 015°53'511.0
2017-May-21 13:00N 28°33' W 015°49'510.9
2017-May-21 12:30N 28°37' W 015°46'510.7
2017-May-21 12:00N 28°42' W 015°44'511.0
2017-May-21 11:30N 28°47' W 015°43'511.0
2017-May-21 11:00N 28°53' W 015°42'610.8
2017-May-21 10:28N 28°59' W 015°42'5410.9
2017-May-21 05:31N 29°52' W 015°33'110.8
2017-May-21 05:24N 29°53' W 015°33'610.7
2017-May-21 04:48N 29°60' W 015°32'310.7
2017-May-21 04:30N 30°03' W 015°31'510.7
2017-May-21 04:00N 30°08' W 015°30'510.8
2017-May-21 03:30N 30°13' W 015°29'610.9
2017-May-21 02:58N 30°19' W 015°29'611.1
2017-May-21 02:28N 30°25' W 015°28'611.1
2017-May-21 01:58N 30°30' W 015°27'511.1
2017-May-21 01:30N 30°35' W 015°26'710.9
2017-May-21 00:50N 30°42' W 015°25'411.0
2017-May-21 00:30N 30°46' W 015°24'  
2017-May-15 01:29N 53°42' W 010°57'5 8.3
2017-May-15 00:51N 53°47' W 010°56'14 8.2
2017-May-14 23:08N 54°01' W 010°53'10 8.4
2017-May-14 21:57N 54°11' W 010°48'11 8.5
2017-May-14 20:38N 54°22' W 010°43'2 8.3
2017-May-14 20:27N 54°23' W 010°43'5 8.4
2017-May-14 19:51N 54°28' W 010°40'374 8.9
2017-May-13 01:58N 60°15' W 006°18'4 9.1
2017-May-13 01:30N 60°18' W 006°13'4 8.8
2017-May-13 01:00N 60°22' W 006°09'5 9.2
2017-May-13 00:30N 60°26' W 006°04'5 9.4
2017-May-13 00:00N 60°30' W 006°00'5 9.3
2017-May-12 23:30N 60°34' W 005°55'5 9.0
2017-May-12 23:00N 60°38' W 005°51'4 8.9
2017-May-12 22:30N 60°42' W 005°47'13 9.0
2017-May-12 21:05N 60°53' W 005°34'1 9.0
2017-May-12 21:00N 60°54' W 005°33'5 9.3
2017-May-12 20:30N 60°58' W 005°29'7 9.5
2017-May-12 19:47N 61°04' W 005°22'3 9.7
2017-May-12 19:28N 61°07' W 005°19'4 9.7
2017-May-12 19:00N 61°10' W 005°14'  
Track history (hours):
 
Tides and Currents Weather Stations Pressure Air Temp Water Temp Dewpoint Dewpoint Depression Visibility Wind Speed Wind Dir Waves Ship Positions

MV Melite

Last reported at 2017-May-21 18:27 UTC. Time now 2017-Jun-28 22:48 UTC.
Position N 27°41' W 016°27'.
Warning: this ship's position is 38 days out of date.

Length 225 m; draft 13.4 m.

Type: Cargo ship. MMSI: 538003832.

Date/timePositionNaut miles runAvg speedWind from/ knotsBaromVisibWave heightAir tempDewpointWater temp
2017-May-21 18:27N 27°41' W 016°27'811.4
2017-May-21 17:45N 27°49' W 016°24'711.6
2017-May-21 17:07N 27°56' W 016°21'611.6
2017-May-21 16:38N 28°01' W 016°19'1011.4
2017-May-21 15:45N 28°09' W 016°12'311.5
2017-May-21 15:30N 28°11' W 016°10'711.5
2017-May-21 14:55N 28°16' W 016°05'711.4
2017-May-21 14:21N 28°21' W 016°00'911.3
2017-May-21 13:30N 28°28' W 015°53'511.0
2017-May-21 13:00N 28°33' W 015°49'510.9
2017-May-21 12:30N 28°37' W 015°46'510.7
2017-May-21 12:00N 28°42' W 015°44'511.0
2017-May-21 11:30N 28°47' W 015°43'511.0
2017-May-21 11:00N 28°53' W 015°42'610.8
2017-May-21 10:28N 28°59' W 015°42'5410.9
2017-May-21 05:31N 29°52' W 015°33'110.8
2017-May-21 05:24N 29°53' W 015°33'610.7
2017-May-21 04:48N 29°60' W 015°32'310.7
2017-May-21 04:30N 30°03' W 015°31'510.7
2017-May-21 04:00N 30°08' W 015°30'510.8
2017-May-21 03:30N 30°13' W 015°29'610.9
2017-May-21 02:58N 30°19' W 015°29'611.1
2017-May-21 02:28N 30°25' W 015°28'611.1
2017-May-21 01:58N 30°30' W 015°27'511.1
2017-May-21 01:30N 30°35' W 015°26'710.9
2017-May-21 00:50N 30°42' W 015°25'411.0
2017-May-21 00:30N 30°46' W 015°24'  
2017-May-15 01:29N 53°42' W 010°57'5 8.3
2017-May-15 00:51N 53°47' W 010°56'14 8.2
2017-May-14 23:08N 54°01' W 010°53'10 8.4
2017-May-14 21:57N 54°11' W 010°48'11 8.5
2017-May-14 20:38N 54°22' W 010°43'2 8.3
2017-May-14 20:27N 54°23' W 010°43'5 8.4
2017-May-14 19:51N 54°28' W 010°40'374 8.9
2017-May-13 01:58N 60°15' W 006°18'4 9.1
2017-May-13 01:30N 60°18' W 006°13'4 8.8
2017-May-13 01:00N 60°22' W 006°09'5 9.2
2017-May-13 00:30N 60°26' W 006°04'5 9.4
2017-May-13 00:00N 60°30' W 006°00'5 9.3
2017-May-12 23:30N 60°34' W 005°55'5 9.0
2017-May-12 23:00N 60°38' W 005°51'4 8.9
2017-May-12 22:30N 60°42' W 005°47'13 9.0
2017-May-12 21:05N 60°53' W 005°34'1 9.0
2017-May-12 21:00N 60°54' W 005°33'5 9.3
2017-May-12 20:30N 60°58' W 005°29'7 9.5
2017-May-12 19:47N 61°04' W 005°22'3 9.7
2017-May-12 19:28N 61°07' W 005°19'4 9.7
2017-May-12 19:00N 61°10' W 005°14'  

Dump ship's entire track history